sensor_id;sensor_type;location;lat;lon;timestamp;P1;durP1;ratioP1;P2;durP2;ratioP2
81523;SDS011;70954;49.500;10.416;2024-02-16T00:00:27;1.15;;;0.85;;
81523;SDS011;70954;49.500;10.416;2024-02-16T00:02:52;1.30;;;0.82;;
81523;SDS011;70954;49.500;10.416;2024-02-16T00:05:18;1.67;;;0.80;;
81523;SDS011;70954;49.500;10.416;2024-02-16T00:07:43;1.55;;;0.90;;
81523;SDS011;70954;49.500;10.416;2024-02-16T00:10:09;2.65;;;1.05;;
81523;SDS011;70954;49.500;10.416;2024-02-16T00:12:35;1.42;;;1.00;;
81523;SDS011;70954;49.500;10.416;2024-02-16T00:15:01;2.03;;;1.05;;
81523;SDS011;70954;49.500;10.416;2024-02-16T00:17:27;2.40;;;1.30;;
81523;SDS011;70954;49.500;10.416;2024-02-16T00:19:53;1.60;;;1.20;;
81523;SDS011;70954;49.500;10.416;2024-02-16T00:22:21;1.65;;;1.30;;
81523;SDS011;70954;49.500;10.416;2024-02-16T00:24:47;2.13;;;1.30;;
81523;SDS011;70954;49.500;10.416;2024-02-16T00:27:12;2.92;;;1.55;;
81523;SDS011;70954;49.500;10.416;2024-02-16T00:29:38;2.15;;;1.33;;
81523;SDS011;70954;49.500;10.416;2024-02-16T00:32:04;1.88;;;1.27;;
81523;SDS011;70954;49.500;10.416;2024-02-16T00:34:30;2.10;;;1.35;;
81523;SDS011;70954;49.500;10.416;2024-02-16T00:36:55;2.20;;;1.23;;
81523;SDS011;70954;49.500;10.416;2024-02-16T00:39:20;2.03;;;1.30;;
81523;SDS011;70954;49.500;10.416;2024-02-16T00:41:46;2.58;;;1.50;;
81523;SDS011;70954;49.500;10.416;2024-02-16T00:44:11;2.40;;;1.40;;
81523;SDS011;70954;49.500;10.416;2024-02-16T00:46:37;1.52;;;1.40;;
81523;SDS011;70954;49.500;10.416;2024-02-16T00:49:02;1.55;;;1.13;;
81523;SDS011;70954;49.500;10.416;2024-02-16T00:51:28;3.72;;;1.42;;
81523;SDS011;70954;49.500;10.416;2024-02-16T00:53:53;1.70;;;1.33;;
81523;SDS011;70954;49.500;10.416;2024-02-16T00:56:19;2.30;;;1.48;;
81523;SDS011;70954;49.500;10.416;2024-02-16T00:58:44;1.80;;;1.30;;
81523;SDS011;70954;49.500;10.416;2024-02-16T01:01:09;1.48;;;1.38;;
81523;SDS011;70954;49.500;10.416;2024-02-16T01:03:35;1.55;;;1.45;;
81523;SDS011;70954;49.500;10.416;2024-02-16T01:06:01;2.20;;;1.35;;
81523;SDS011;70954;49.500;10.416;2024-02-16T01:08:26;2.60;;;1.20;;
81523;SDS011;70954;49.500;10.416;2024-02-16T01:10:52;2.40;;;1.48;;
81523;SDS011;70954;49.500;10.416;2024-02-16T01:13:17;2.20;;;1.30;;
81523;SDS011;70954;49.500;10.416;2024-02-16T01:15:43;1.50;;;1.27;;
81523;SDS011;70954;49.500;10.416;2024-02-16T01:18:09;1.73;;;1.20;;
81523;SDS011;70954;49.500;10.416;2024-02-16T01:20:34;1.80;;;1.10;;
81523;SDS011;70954;49.500;10.416;2024-02-16T01:23:00;1.13;;;0.98;;
81523;SDS011;70954;49.500;10.416;2024-02-16T01:25:25;1.70;;;1.20;;
81523;SDS011;70954;49.500;10.416;2024-02-16T01:27:50;1.55;;;1.20;;
81523;SDS011;70954;49.500;10.416;2024-02-16T01:30:16;1.92;;;1.30;;
81523;SDS011;70954;49.500;10.416;2024-02-16T01:32:41;1.27;;;1.10;;
81523;SDS011;70954;49.500;10.416;2024-02-16T01:35:07;1.90;;;1.10;;
81523;SDS011;70954;49.500;10.416;2024-02-16T01:37:32;6.40;;;1.73;;
81523;SDS011;70954;49.500;10.416;2024-02-16T01:39:58;2.50;;;1.15;;
81523;SDS011;70954;49.500;10.416;2024-02-16T01:42:23;1.85;;;1.23;;
81523;SDS011;70954;49.500;10.416;2024-02-16T01:44:49;2.60;;;1.60;;
81523;SDS011;70954;49.500;10.416;2024-02-16T01:47:16;1.95;;;1.33;;
81523;SDS011;70954;49.500;10.416;2024-02-16T01:49:43;2.00;;;1.30;;
81523;SDS011;70954;49.500;10.416;2024-02-16T01:52:09;1.75;;;1.38;;
81523;SDS011;70954;49.500;10.416;2024-02-16T01:54:34;1.92;;;1.50;;
81523;SDS011;70954;49.500;10.416;2024-02-16T01:57:00;1.58;;;1.17;;
81523;SDS011;70954;49.500;10.416;2024-02-16T01:59:26;2.00;;;1.33;;
81523;SDS011;70954;49.500;10.416;2024-02-16T02:01:52;1.45;;;1.25;;
81523;SDS011;70954;49.500;10.416;2024-02-16T02:04:17;1.90;;;1.63;;
81523;SDS011;70954;49.500;10.416;2024-02-16T02:06:42;3.35;;;1.20;;
81523;SDS011;70954;49.500;10.416;2024-02-16T02:09:08;1.70;;;1.25;;
81523;SDS011;70954;49.500;10.416;2024-02-16T02:11:33;1.67;;;1.38;;
81523;SDS011;70954;49.500;10.416;2024-02-16T02:13:59;3.90;;;1.60;;
81523;SDS011;70954;49.500;10.416;2024-02-16T02:16:24;4.78;;;2.10;;
81523;SDS011;70954;49.500;10.416;2024-02-16T02:18:50;4.05;;;1.65;;
81523;SDS011;70954;49.500;10.416;2024-02-16T02:21:15;3.63;;;2.03;;
81523;SDS011;70954;49.500;10.416;2024-02-16T02:23:41;2.83;;;1.48;;
81523;SDS011;70954;49.500;10.416;2024-02-16T02:26:06;3.13;;;1.48;;
81523;SDS011;70954;49.500;10.416;2024-02-16T02:28:32;2.60;;;1.92;;
81523;SDS011;70954;49.500;10.416;2024-02-16T02:30:57;2.70;;;1.63;;
81523;SDS011;70954;49.500;10.416;2024-02-16T02:33:22;2.75;;;1.60;;
81523;SDS011;70954;49.500;10.416;2024-02-16T02:35:48;2.70;;;1.90;;
81523;SDS011;70954;49.500;10.416;2024-02-16T02:38:13;2.25;;;1.42;;
81523;SDS011;70954;49.500;10.416;2024-02-16T02:40:39;2.40;;;1.42;;
81523;SDS011;70954;49.500;10.416;2024-02-16T02:43:04;2.38;;;1.50;;
81523;SDS011;70954;49.500;10.416;2024-02-16T02:45:30;2.40;;;1.48;;
81523;SDS011;70954;49.500;10.416;2024-02-16T02:47:55;3.50;;;1.70;;
81523;SDS011;70954;49.500;10.416;2024-02-16T02:50:20;2.85;;;1.35;;
81523;SDS011;70954;49.500;10.416;2024-02-16T02:52:46;3.13;;;1.27;;
81523;SDS011;70954;49.500;10.416;2024-02-16T02:55:11;1.80;;;1.33;;
81523;SDS011;70954;49.500;10.416;2024-02-16T02:57:37;2.33;;;1.48;;
81523;SDS011;70954;49.500;10.416;2024-02-16T03:00:03;1.58;;;1.35;;
81523;SDS011;70954;49.500;10.416;2024-02-16T03:02:30;2.50;;;1.40;;
81523;SDS011;70954;49.500;10.416;2024-02-16T03:04:55;2.20;;;1.60;;
81523;SDS011;70954;49.500;10.416;2024-02-16T03:07:21;1.70;;;1.20;;
81523;SDS011;70954;49.500;10.416;2024-02-16T03:09:46;1.75;;;1.50;;
81523;SDS011;70954;49.500;10.416;2024-02-16T03:12:11;2.85;;;1.70;;
81523;SDS011;70954;49.500;10.416;2024-02-16T03:14:37;2.80;;;1.25;;
81523;SDS011;70954;49.500;10.416;2024-02-16T03:17:03;3.20;;;1.77;;
81523;SDS011;70954;49.500;10.416;2024-02-16T03:19:28;2.67;;;1.63;;
81523;SDS011;70954;49.500;10.416;2024-02-16T03:21:53;2.33;;;1.70;;
81523;SDS011;70954;49.500;10.416;2024-02-16T03:24:19;1.83;;;1.42;;
81523;SDS011;70954;49.500;10.416;2024-02-16T03:26:44;2.90;;;1.58;;
81523;SDS011;70954;49.500;10.416;2024-02-16T03:29:10;3.13;;;1.90;;
81523;SDS011;70954;49.500;10.416;2024-02-16T03:31:35;1.50;;;1.35;;
81523;SDS011;70954;49.500;10.416;2024-02-16T03:34:01;1.90;;;1.50;;
81523;SDS011;70954;49.500;10.416;2024-02-16T03:36:26;3.88;;;1.98;;
81523;SDS011;70954;49.500;10.416;2024-02-16T03:38:51;2.13;;;1.50;;
81523;SDS011;70954;49.500;10.416;2024-02-16T03:41:21;1.35;;;1.17;;
81523;SDS011;70954;49.500;10.416;2024-02-16T03:43:47;2.28;;;1.70;;
81523;SDS011;70954;49.500;10.416;2024-02-16T03:46:13;2.40;;;1.80;;
81523;SDS011;70954;49.500;10.416;2024-02-16T03:48:38;2.42;;;1.58;;
81523;SDS011;70954;49.500;10.416;2024-02-16T03:51:04;1.77;;;1.38;;
81523;SDS011;70954;49.500;10.416;2024-02-16T03:53:29;2.17;;;1.50;;
81523;SDS011;70954;49.500;10.416;2024-02-16T03:55:55;2.55;;;1.95;;
81523;SDS011;70954;49.500;10.416;2024-02-16T03:58:20;1.38;;;1.23;;
81523;SDS011;70954;49.500;10.416;2024-02-16T04:00:46;1.88;;;1.40;;
81523;SDS011;70954;49.500;10.416;2024-02-16T04:03:12;2.10;;;1.52;;
81523;SDS011;70954;49.500;10.416;2024-02-16T04:05:40;2.78;;;1.77;;
81523;SDS011;70954;49.500;10.416;2024-02-16T04:08:06;1.85;;;1.40;;
81523;SDS011;70954;49.500;10.416;2024-02-16T04:10:35;2.78;;;1.90;;
81523;SDS011;70954;49.500;10.416;2024-02-16T04:13:00;1.95;;;1.48;;
81523;SDS011;70954;49.500;10.416;2024-02-16T04:15:26;2.22;;;1.75;;
81523;SDS011;70954;49.500;10.416;2024-02-16T04:17:52;2.28;;;1.50;;
81523;SDS011;70954;49.500;10.416;2024-02-16T04:20:18;1.80;;;1.60;;
81523;SDS011;70954;49.500;10.416;2024-02-16T04:22:44;2.30;;;1.40;;
81523;SDS011;70954;49.500;10.416;2024-02-16T04:25:10;2.45;;;1.70;;
81523;SDS011;70954;49.500;10.416;2024-02-16T04:27:36;2.55;;;1.80;;
81523;SDS011;70954;49.500;10.416;2024-02-16T04:30:02;2.38;;;1.83;;
81523;SDS011;70954;49.500;10.416;2024-02-16T04:32:31;2.90;;;1.63;;
81523;SDS011;70954;49.500;10.416;2024-02-16T04:34:56;1.55;;;1.27;;
81523;SDS011;70954;49.500;10.416;2024-02-16T04:37:23;2.42;;;1.77;;
81523;SDS011;70954;49.500;10.416;2024-02-16T04:39:49;3.03;;;1.65;;
81523;SDS011;70954;49.500;10.416;2024-02-16T04:42:14;2.13;;;1.63;;
81523;SDS011;70954;49.500;10.416;2024-02-16T04:44:42;2.45;;;1.50;;
81523;SDS011;70954;49.500;10.416;2024-02-16T04:47:08;2.35;;;1.70;;
81523;SDS011;70954;49.500;10.416;2024-02-16T04:49:33;2.50;;;1.55;;
81523;SDS011;70954;49.500;10.416;2024-02-16T04:51:59;1.65;;;1.52;;
81523;SDS011;70954;49.500;10.416;2024-02-16T04:54:24;2.08;;;1.63;;
81523;SDS011;70954;49.500;10.416;2024-02-16T04:56:50;3.13;;;1.83;;
81523;SDS011;70954;49.500;10.416;2024-02-16T04:59:16;2.28;;;1.92;;
81523;SDS011;70954;49.500;10.416;2024-02-16T05:01:45;1.92;;;1.60;;
81523;SDS011;70954;49.500;10.416;2024-02-16T05:04:11;2.70;;;1.92;;
81523;SDS011;70954;49.500;10.416;2024-02-16T05:06:39;2.10;;;1.42;;
81523;SDS011;70954;49.500;10.416;2024-02-16T05:09:05;2.35;;;1.73;;
81523;SDS011;70954;49.500;10.416;2024-02-16T05:11:31;4.05;;;1.85;;
81523;SDS011;70954;49.500;10.416;2024-02-16T05:13:57;2.22;;;1.70;;
81523;SDS011;70954;49.500;10.416;2024-02-16T05:16:23;2.20;;;1.50;;
81523;SDS011;70954;49.500;10.416;2024-02-16T05:18:48;3.17;;;1.90;;
81523;SDS011;70954;49.500;10.416;2024-02-16T05:21:14;2.45;;;1.67;;
81523;SDS011;70954;49.500;10.416;2024-02-16T05:23:39;4.32;;;2.05;;
81523;SDS011;70954;49.500;10.416;2024-02-16T05:26:05;2.10;;;1.50;;
81523;SDS011;70954;49.500;10.416;2024-02-16T05:28:30;3.10;;;1.85;;
81523;SDS011;70954;49.500;10.416;2024-02-16T05:30:56;2.70;;;1.98;;
81523;SDS011;70954;49.500;10.416;2024-02-16T05:33:22;2.63;;;1.83;;
81523;SDS011;70954;49.500;10.416;2024-02-16T05:35:48;1.83;;;1.63;;
81523;SDS011;70954;49.500;10.416;2024-02-16T05:38:13;2.30;;;1.73;;
81523;SDS011;70954;49.500;10.416;2024-02-16T05:40:39;2.00;;;1.45;;
81523;SDS011;70954;49.500;10.416;2024-02-16T05:43:06;2.05;;;1.73;;
81523;SDS011;70954;49.500;10.416;2024-02-16T05:45:31;2.55;;;1.73;;
81523;SDS011;70954;49.500;10.416;2024-02-16T05:47:59;3.35;;;1.90;;
81523;SDS011;70954;49.500;10.416;2024-02-16T05:50:24;3.28;;;1.83;;
81523;SDS011;70954;49.500;10.416;2024-02-16T05:52:50;2.65;;;1.85;;
81523;SDS011;70954;49.500;10.416;2024-02-16T05:55:15;3.45;;;2.35;;
81523;SDS011;70954;49.500;10.416;2024-02-16T05:57:40;2.25;;;1.77;;
81523;SDS011;70954;49.500;10.416;2024-02-16T06:00:07;2.10;;;1.52;;
81523;SDS011;70954;49.500;10.416;2024-02-16T06:02:33;2.78;;;1.75;;
81523;SDS011;70954;49.500;10.416;2024-02-16T06:04:59;2.88;;;1.65;;
81523;SDS011;70954;49.500;10.416;2024-02-16T06:07:26;2.55;;;2.22;;
81523;SDS011;70954;49.500;10.416;2024-02-16T06:09:51;2.60;;;2.13;;
81523;SDS011;70954;49.500;10.416;2024-02-16T06:12:17;2.97;;;2.15;;
81523;SDS011;70954;49.500;10.416;2024-02-16T06:14:42;2.63;;;2.15;;
81523;SDS011;70954;49.500;10.416;2024-02-16T06:17:08;3.40;;;2.13;;
81523;SDS011;70954;49.500;10.416;2024-02-16T06:19:33;2.65;;;1.92;;
81523;SDS011;70954;49.500;10.416;2024-02-16T06:21:59;3.28;;;2.50;;
81523;SDS011;70954;49.500;10.416;2024-02-16T06:24:25;2.50;;;1.95;;
81523;SDS011;70954;49.500;10.416;2024-02-16T06:26:51;2.83;;;2.22;;
81523;SDS011;70954;49.500;10.416;2024-02-16T06:29:16;4.60;;;2.30;;
81523;SDS011;70954;49.500;10.416;2024-02-16T06:31:42;3.05;;;2.22;;
81523;SDS011;70954;49.500;10.416;2024-02-16T06:34:07;2.47;;;1.77;;
81523;SDS011;70954;49.500;10.416;2024-02-16T06:36:33;3.13;;;1.85;;
81523;SDS011;70954;49.500;10.416;2024-02-16T06:38:59;2.70;;;2.15;;
81523;SDS011;70954;49.500;10.416;2024-02-16T06:41:25;2.28;;;1.70;;
81523;SDS011;70954;49.500;10.416;2024-02-16T06:43:51;2.67;;;1.90;;
81523;SDS011;70954;49.500;10.416;2024-02-16T06:46:16;2.78;;;2.17;;
81523;SDS011;70954;49.500;10.416;2024-02-16T06:48:41;3.95;;;2.60;;
81523;SDS011;70954;49.500;10.416;2024-02-16T06:51:07;3.42;;;2.30;;
81523;SDS011;70954;49.500;10.416;2024-02-16T06:53:32;3.03;;;1.98;;
81523;SDS011;70954;49.500;10.416;2024-02-16T06:55:58;2.80;;;2.20;;
81523;SDS011;70954;49.500;10.416;2024-02-16T06:58:23;3.33;;;2.33;;
81523;SDS011;70954;49.500;10.416;2024-02-16T07:00:49;3.63;;;2.05;;
81523;SDS011;70954;49.500;10.416;2024-02-16T07:03:14;4.22;;;2.60;;
81523;SDS011;70954;49.500;10.416;2024-02-16T07:05:39;3.15;;;2.13;;
81523;SDS011;70954;49.500;10.416;2024-02-16T07:08:05;2.70;;;2.08;;
81523;SDS011;70954;49.500;10.416;2024-02-16T07:10:31;4.80;;;2.95;;
81523;SDS011;70954;49.500;10.416;2024-02-16T07:12:56;4.53;;;3.15;;
81523;SDS011;70954;49.500;10.416;2024-02-16T07:15:22;4.97;;;3.17;;
81523;SDS011;70954;49.500;10.416;2024-02-16T07:17:47;4.20;;;2.45;;
81523;SDS011;70954;49.500;10.416;2024-02-16T07:20:13;2.70;;;2.08;;
81523;SDS011;70954;49.500;10.416;2024-02-16T07:22:38;2.90;;;1.90;;
81523;SDS011;70954;49.500;10.416;2024-02-16T07:25:04;4.20;;;2.63;;
81523;SDS011;70954;49.500;10.416;2024-02-16T07:27:29;4.32;;;3.17;;
81523;SDS011;70954;49.500;10.416;2024-02-16T07:29:55;4.10;;;2.65;;
81523;SDS011;70954;49.500;10.416;2024-02-16T07:32:20;4.07;;;2.83;;
81523;SDS011;70954;49.500;10.416;2024-02-16T07:34:46;4.20;;;3.13;;
81523;SDS011;70954;49.500;10.416;2024-02-16T07:37:12;4.55;;;2.85;;
81523;SDS011;70954;49.500;10.416;2024-02-16T07:39:37;5.03;;;2.72;;
81523;SDS011;70954;49.500;10.416;2024-02-16T07:42:03;5.00;;;2.78;;
81523;SDS011;70954;49.500;10.416;2024-02-16T07:44:28;3.42;;;2.72;;
81523;SDS011;70954;49.500;10.416;2024-02-16T07:46:53;4.07;;;2.60;;
81523;SDS011;70954;49.500;10.416;2024-02-16T07:49:19;3.45;;;2.25;;
81523;SDS011;70954;49.500;10.416;2024-02-16T07:51:44;3.28;;;2.08;;
81523;SDS011;70954;49.500;10.416;2024-02-16T07:54:10;3.60;;;2.55;;
81523;SDS011;70954;49.500;10.416;2024-02-16T07:56:35;3.75;;;2.90;;
81523;SDS011;70954;49.500;10.416;2024-02-16T07:59:01;3.50;;;2.47;;
81523;SDS011;70954;49.500;10.416;2024-02-16T08:01:26;3.45;;;2.72;;
81523;SDS011;70954;49.500;10.416;2024-02-16T08:03:51;4.10;;;2.80;;
81523;SDS011;70954;49.500;10.416;2024-02-16T08:06:17;6.07;;;2.83;;
81523;SDS011;70954;49.500;10.416;2024-02-16T08:08:42;6.57;;;2.53;;
81523;SDS011;70954;49.500;10.416;2024-02-16T08:11:08;3.53;;;2.47;;
81523;SDS011;70954;49.500;10.416;2024-02-16T08:13:33;3.22;;;2.42;;
81523;SDS011;70954;49.500;10.416;2024-02-16T08:15:59;4.53;;;2.97;;
81523;SDS011;70954;49.500;10.416;2024-02-16T08:18:24;4.90;;;2.53;;
81523;SDS011;70954;49.500;10.416;2024-02-16T08:20:49;4.32;;;2.58;;
81523;SDS011;70954;49.500;10.416;2024-02-16T08:23:15;5.85;;;2.65;;
81523;SDS011;70954;49.500;10.416;2024-02-16T08:25:40;4.68;;;2.42;;
81523;SDS011;70954;49.500;10.416;2024-02-16T08:28:06;4.25;;;2.78;;
81523;SDS011;70954;49.500;10.416;2024-02-16T08:30:31;5.57;;;2.92;;
81523;SDS011;70954;49.500;10.416;2024-02-16T08:32:57;3.80;;;2.70;;
81523;SDS011;70954;49.500;10.416;2024-02-16T08:35:22;4.47;;;2.60;;
81523;SDS011;70954;49.500;10.416;2024-02-16T08:37:47;3.40;;;2.47;;
81523;SDS011;70954;49.500;10.416;2024-02-16T08:40:13;4.82;;;2.85;;
81523;SDS011;70954;49.500;10.416;2024-02-16T08:42:38;3.85;;;2.55;;
81523;SDS011;70954;49.500;10.416;2024-02-16T08:45:04;5.43;;;3.10;;
81523;SDS011;70954;49.500;10.416;2024-02-16T08:47:29;4.43;;;2.95;;
81523;SDS011;70954;49.500;10.416;2024-02-16T08:49:55;4.15;;;2.85;;
81523;SDS011;70954;49.500;10.416;2024-02-16T08:52:20;6.75;;;2.97;;
81523;SDS011;70954;49.500;10.416;2024-02-16T08:54:46;7.25;;;3.40;;
81523;SDS011;70954;49.500;10.416;2024-02-16T08:57:11;4.85;;;3.35;;
81523;SDS011;70954;49.500;10.416;2024-02-16T08:59:36;4.32;;;3.08;;
81523;SDS011;70954;49.500;10.416;2024-02-16T09:02:02;7.38;;;4.75;;
81523;SDS011;70954;49.500;10.416;2024-02-16T09:04:27;8.10;;;4.53;;
81523;SDS011;70954;49.500;10.416;2024-02-16T09:06:53;7.97;;;4.47;;
81523;SDS011;70954;49.500;10.416;2024-02-16T09:09:18;6.60;;;3.97;;
81523;SDS011;70954;49.500;10.416;2024-02-16T09:11:44;7.90;;;4.00;;
81523;SDS011;70954;49.500;10.416;2024-02-16T09:14:09;5.43;;;3.83;;
81523;SDS011;70954;49.500;10.416;2024-02-16T09:16:35;5.07;;;3.30;;
81523;SDS011;70954;49.500;10.416;2024-02-16T09:19:00;7.18;;;4.00;;
81523;SDS011;70954;49.500;10.416;2024-02-16T09:21:26;6.13;;;3.78;;
81523;SDS011;70954;49.500;10.416;2024-02-16T09:23:51;6.97;;;4.10;;
81523;SDS011;70954;49.500;10.416;2024-02-16T09:26:17;7.05;;;4.03;;
81523;SDS011;70954;49.500;10.416;2024-02-16T09:28:42;5.40;;;3.45;;
81523;SDS011;70954;49.500;10.416;2024-02-16T09:31:08;6.55;;;3.75;;
81523;SDS011;70954;49.500;10.416;2024-02-16T09:33:33;5.18;;;3.15;;
81523;SDS011;70954;49.500;10.416;2024-02-16T09:35:59;4.13;;;3.00;;
81523;SDS011;70954;49.500;10.416;2024-02-16T09:38:25;4.55;;;3.08;;
81523;SDS011;70954;49.500;10.416;2024-02-16T09:40:50;4.45;;;3.20;;
81523;SDS011;70954;49.500;10.416;2024-02-16T09:43:23;5.50;;;3.25;;
81523;SDS011;70954;49.500;10.416;2024-02-16T09:45:52;3.40;;;2.70;;
81523;SDS011;70954;49.500;10.416;2024-02-16T09:48:18;4.30;;;3.00;;
81523;SDS011;70954;49.500;10.416;2024-02-16T09:50:45;6.90;;;3.38;;
81523;SDS011;70954;49.500;10.416;2024-02-16T09:53:10;5.20;;;3.33;;
81523;SDS011;70954;49.500;10.416;2024-02-16T09:55:37;3.97;;;3.20;;
81523;SDS011;70954;49.500;10.416;2024-02-16T09:58:03;5.60;;;3.50;;
81523;SDS011;70954;49.500;10.416;2024-02-16T10:00:29;5.55;;;3.22;;
81523;SDS011;70954;49.500;10.416;2024-02-16T10:02:54;5.05;;;3.33;;
81523;SDS011;70954;49.500;10.416;2024-02-16T10:05:20;4.43;;;2.97;;
81523;SDS011;70954;49.500;10.416;2024-02-16T10:07:46;5.05;;;3.28;;
81523;SDS011;70954;49.500;10.416;2024-02-16T10:10:21;4.38;;;2.92;;
81523;SDS011;70954;49.500;10.416;2024-02-16T10:12:48;4.47;;;3.28;;
81523;SDS011;70954;49.500;10.416;2024-02-16T10:15:20;4.40;;;3.05;;
81523;SDS011;70954;49.500;10.416;2024-02-16T10:17:56;4.05;;;2.78;;
81523;SDS011;70954;49.500;10.416;2024-02-16T10:20:28;5.75;;;3.50;;
81523;SDS011;70954;49.500;10.416;2024-02-16T10:23:07;5.55;;;3.15;;
81523;SDS011;70954;49.500;10.416;2024-02-16T10:25:34;4.80;;;3.05;;
81523;SDS011;70954;49.500;10.416;2024-02-16T10:28:08;4.43;;;3.28;;
81523;SDS011;70954;49.500;10.416;2024-02-16T10:30:35;4.00;;;2.97;;
81523;SDS011;70954;49.500;10.416;2024-02-16T10:33:01;5.88;;;3.42;;
81523;SDS011;70954;49.500;10.416;2024-02-16T10:35:28;3.55;;;2.75;;
81523;SDS011;70954;49.500;10.416;2024-02-16T10:37:55;3.70;;;2.70;;
81523;SDS011;70954;49.500;10.416;2024-02-16T10:40:21;4.85;;;2.95;;
81523;SDS011;70954;49.500;10.416;2024-02-16T10:42:49;3.38;;;2.60;;
81523;SDS011;70954;49.500;10.416;2024-02-16T10:45:15;3.50;;;2.67;;
81523;SDS011;70954;49.500;10.416;2024-02-16T10:47:41;4.20;;;2.80;;
81523;SDS011;70954;49.500;10.416;2024-02-16T10:50:07;4.32;;;2.63;;
81523;SDS011;70954;49.500;10.416;2024-02-16T10:52:33;6.35;;;2.80;;
81523;SDS011;70954;49.500;10.416;2024-02-16T10:54:59;4.78;;;2.63;;
81523;SDS011;70954;49.500;10.416;2024-02-16T10:57:25;6.07;;;2.60;;
81523;SDS011;70954;49.500;10.416;2024-02-16T10:59:52;4.05;;;2.85;;
81523;SDS011;70954;49.500;10.416;2024-02-16T11:02:18;4.15;;;2.63;;
81523;SDS011;70954;49.500;10.416;2024-02-16T11:04:45;3.42;;;2.70;;
81523;SDS011;70954;49.500;10.416;2024-02-16T11:07:18;5.47;;;2.83;;
81523;SDS011;70954;49.500;10.416;2024-02-16T11:09:44;4.78;;;3.13;;
81523;SDS011;70954;49.500;10.416;2024-02-16T11:12:14;4.85;;;2.78;;
81523;SDS011;70954;49.500;10.416;2024-02-16T11:14:46;4.55;;;2.83;;
81523;SDS011;70954;49.500;10.416;2024-02-16T11:17:13;3.90;;;2.60;;
81523;SDS011;70954;49.500;10.416;2024-02-16T11:19:40;3.78;;;2.60;;
81523;SDS011;70954;49.500;10.416;2024-02-16T11:22:07;6.60;;;2.90;;
81523;SDS011;70954;49.500;10.416;2024-02-16T11:24:33;5.07;;;3.10;;
81523;SDS011;70954;49.500;10.416;2024-02-16T11:27:03;4.10;;;2.67;;
81523;SDS011;70954;49.500;10.416;2024-02-16T11:29:34;3.65;;;2.47;;
81523;SDS011;70954;49.500;10.416;2024-02-16T11:32:01;3.80;;;2.70;;
81523;SDS011;70954;49.500;10.416;2024-02-16T11:34:28;4.25;;;2.60;;
81523;SDS011;70954;49.500;10.416;2024-02-16T11:37:00;4.28;;;2.47;;
81523;SDS011;70954;49.500;10.416;2024-02-16T11:39:26;4.40;;;2.70;;
81523;SDS011;70954;49.500;10.416;2024-02-16T11:42:00;4.68;;;2.75;;
81523;SDS011;70954;49.500;10.416;2024-02-16T11:44:33;4.45;;;2.63;;
81523;SDS011;70954;49.500;10.416;2024-02-16T11:47:00;3.70;;;2.75;;
81523;SDS011;70954;49.500;10.416;2024-02-16T11:49:27;6.85;;;2.70;;
81523;SDS011;70954;49.500;10.416;2024-02-16T11:51:53;4.00;;;2.42;;
81523;SDS011;70954;49.500;10.416;2024-02-16T11:54:19;4.50;;;2.58;;
81523;SDS011;70954;49.500;10.416;2024-02-16T11:56:48;3.70;;;2.72;;
81523;SDS011;70954;49.500;10.416;2024-02-16T11:59:14;4.32;;;2.47;;
81523;SDS011;70954;49.500;10.416;2024-02-16T12:01:50;3.80;;;2.45;;
81523;SDS011;70954;49.500;10.416;2024-02-16T12:04:23;3.28;;;2.20;;
81523;SDS011;70954;49.500;10.416;2024-02-16T12:06:53;3.72;;;2.40;;
81523;SDS011;70954;49.500;10.416;2024-02-16T12:09:20;4.90;;;2.80;;
81523;SDS011;70954;49.500;10.416;2024-02-16T12:11:46;4.50;;;3.00;;
81523;SDS011;70954;49.500;10.416;2024-02-16T12:14:16;4.00;;;2.55;;
81523;SDS011;70954;49.500;10.416;2024-02-16T12:16:42;4.32;;;2.42;;
81523;SDS011;70954;49.500;10.416;2024-02-16T12:19:07;3.45;;;2.47;;
81523;SDS011;70954;49.500;10.416;2024-02-16T12:21:33;3.40;;;2.30;;
81523;SDS011;70954;49.500;10.416;2024-02-16T12:23:58;3.97;;;2.50;;
81523;SDS011;70954;49.500;10.416;2024-02-16T12:26:24;4.20;;;2.63;;
81523;SDS011;70954;49.500;10.416;2024-02-16T12:28:49;3.28;;;2.28;;
81523;SDS011;70954;49.500;10.416;2024-02-16T12:31:18;3.35;;;2.22;;
81523;SDS011;70954;49.500;10.416;2024-02-16T12:33:45;3.13;;;2.00;;
81523;SDS011;70954;49.500;10.416;2024-02-16T12:36:10;3.92;;;2.28;;
81523;SDS011;70954;49.500;10.416;2024-02-16T12:38:35;3.88;;;2.10;;
81523;SDS011;70954;49.500;10.416;2024-02-16T12:41:01;3.17;;;2.00;;
81523;SDS011;70954;49.500;10.416;2024-02-16T12:43:26;3.65;;;2.22;;
81523;SDS011;70954;49.500;10.416;2024-02-16T12:45:52;3.67;;;1.80;;
81523;SDS011;70954;49.500;10.416;2024-02-16T12:48:17;2.80;;;1.80;;
81523;SDS011;70954;49.500;10.416;2024-02-16T12:50:43;2.45;;;1.48;;
81523;SDS011;70954;49.500;10.416;2024-02-16T12:53:08;3.67;;;1.90;;
81523;SDS011;70954;49.500;10.416;2024-02-16T12:55:34;4.07;;;1.90;;
81523;SDS011;70954;49.500;10.416;2024-02-16T12:57:59;3.53;;;1.80;;
81523;SDS011;70954;49.500;10.416;2024-02-16T13:00:25;2.63;;;1.52;;
81523;SDS011;70954;49.500;10.416;2024-02-16T13:02:50;2.88;;;1.70;;
81523;SDS011;70954;49.500;10.416;2024-02-16T13:05:16;3.05;;;1.70;;
81523;SDS011;70954;49.500;10.416;2024-02-16T13:07:41;2.35;;;1.42;;
81523;SDS011;70954;49.500;10.416;2024-02-16T13:10:07;2.65;;;1.30;;
81523;SDS011;70954;49.500;10.416;2024-02-16T13:12:33;3.72;;;1.40;;
81523;SDS011;70954;49.500;10.416;2024-02-16T13:14:59;7.03;;;2.88;;
81523;SDS011;70954;49.500;10.416;2024-02-16T13:17:24;4.50;;;2.63;;
81523;SDS011;70954;49.500;10.416;2024-02-16T13:19:50;5.32;;;2.70;;
81523;SDS011;70954;49.500;10.416;2024-02-16T13:22:15;3.47;;;1.50;;
81523;SDS011;70954;49.500;10.416;2024-02-16T13:24:40;2.40;;;1.20;;
81523;SDS011;70954;49.500;10.416;2024-02-16T13:27:07;2.50;;;1.20;;
81523;SDS011;70954;49.500;10.416;2024-02-16T13:29:32;1.33;;;0.93;;
81523;SDS011;70954;49.500;10.416;2024-02-16T13:31:58;2.97;;;1.27;;
81523;SDS011;70954;49.500;10.416;2024-02-16T13:34:23;2.92;;;1.00;;
81523;SDS011;70954;49.500;10.416;2024-02-16T13:36:48;1.15;;;0.88;;
81523;SDS011;70954;49.500;10.416;2024-02-16T13:39:14;2.88;;;0.80;;
81523;SDS011;70954;49.500;10.416;2024-02-16T13:41:39;2.30;;;1.00;;
81523;SDS011;70954;49.500;10.416;2024-02-16T13:44:05;1.65;;;1.00;;
81523;SDS011;70954;49.500;10.416;2024-02-16T13:46:31;4.07;;;1.20;;
81523;SDS011;70954;49.500;10.416;2024-02-16T13:48:56;2.35;;;1.10;;
81523;SDS011;70954;49.500;10.416;2024-02-16T13:51:22;3.05;;;1.17;;
81523;SDS011;70954;49.500;10.416;2024-02-16T13:53:47;2.90;;;1.10;;
81523;SDS011;70954;49.500;10.416;2024-02-16T13:56:12;5.05;;;1.10;;
81523;SDS011;70954;49.500;10.416;2024-02-16T13:58:38;2.03;;;1.20;;
81523;SDS011;70954;49.500;10.416;2024-02-16T14:01:03;2.03;;;1.08;;
81523;SDS011;70954;49.500;10.416;2024-02-16T14:03:29;2.05;;;1.10;;
81523;SDS011;70954;49.500;10.416;2024-02-16T14:05:57;3.30;;;1.30;;
81523;SDS011;70954;49.500;10.416;2024-02-16T14:08:22;2.38;;;1.10;;
81523;SDS011;70954;49.500;10.416;2024-02-16T14:10:48;2.35;;;1.02;;
81523;SDS011;70954;49.500;10.416;2024-02-16T14:13:13;2.60;;;1.10;;
81523;SDS011;70954;49.500;10.416;2024-02-16T14:15:39;1.25;;;0.90;;
81523;SDS011;70954;49.500;10.416;2024-02-16T14:18:04;2.78;;;1.20;;
81523;SDS011;70954;49.500;10.416;2024-02-16T14:20:30;2.88;;;1.20;;
81523;SDS011;70954;49.500;10.416;2024-02-16T14:22:55;2.15;;;1.10;;
81523;SDS011;70954;49.500;10.416;2024-02-16T14:25:21;2.35;;;1.10;;